Time;durP1;ratioP1;P1;durP2;ratioP2;P2;SDS_P1;SDS_P2;PMS_P1;PMS_P2;Temp;Humidity;BMP_temperature;BMP_pressure;BME280_temperature;BME280_humidity;BME280_pressure;Samples;Min_cycle;Max_cycle;Signal;HPM_P1;HPM_P2
2021/03/16 00:00:09;;;;;;;20.55;13.43;;;;;;;2.88;80.78;99763.44;1763524;81;21388;-73
2021/03/16 00:02:37;;;;;;;25.25;16.60;;;;;;;2.88;80.83;99767.39;1763445;81;21211;-73
2021/03/16 00:05:06;;;;;;;30.65;17.50;;;;;;;2.84;80.88;99770.78;1755752;81;21128;-73
2021/03/16 00:07:32;;;;;;;33.35;18.35;;;;;;;2.82;80.94;99774.02;1732661;82;21144;-73
2021/03/16 00:09:58;;;;;;;32.28;21.12;;;;;;;2.80;80.95;99781.23;1732668;82;21175;-73
2021/03/16 00:12:25;;;;;;;33.40;24.82;;;;;;;2.80;80.95;99777.77;1732550;82;21181;-73
2021/03/16 00:14:51;;;;;;;23.22;14.87;;;;;;;2.80;80.99;99780.39;1732427;82;21163;-73
2021/03/16 00:17:17;;;;;;;29.80;16.97;;;;;;;2.79;81.02;99777.41;1732962;82;21195;-73
2021/03/16 00:19:45;;;;;;;22.85;13.30;;;;;;;2.81;81.06;99772.85;1750787;81;21161;-73
2021/03/16 00:22:11;;;;;;;28.98;17.85;;;;;;;2.84;81.12;99779.16;1787536;80;21174;-73
2021/03/16 00:24:37;;;;;;;21.50;14.33;;;;;;;2.87;81.13;99777.09;1772102;80;21188;-73
2021/03/16 00:27:04;;;;;;;25.97;16.52;;;;;;;2.89;81.18;99778.25;1768354;81;21122;-73
2021/03/16 00:29:30;;;;;;;29.90;18.65;;;;;;;2.91;81.25;99780.28;1766319;81;21143;-73
2021/03/16 00:31:57;;;;;;;15.10;9.90;;;;;;;2.91;81.27;99775.84;1768385;81;21580;-73
2021/03/16 00:34:23;;;;;;;11.00;7.90;;;;;;;2.93;81.32;99778.33;1740352;81;21089;-73
2021/03/16 00:36:49;;;;;;;15.50;9.40;;;;;;;2.93;81.31;99784.91;1727721;82;21479;-73
2021/03/16 00:39:15;;;;;;;14.15;9.00;;;;;;;2.94;81.34;99789.22;1730139;83;21205;-73
2021/03/16 00:41:42;;;;;;;13.03;9.60;;;;;;;2.93;81.34;99789.70;1729677;83;21142;-73
2021/03/16 00:44:08;;;;;;;13.75;9.25;;;;;;;2.94;81.35;99791.86;1729989;83;21649;-73
2021/03/16 00:46:35;;;;;;;16.75;10.28;;;;;;;2.94;81.37;99789.22;1730132;83;21582;-73
2021/03/16 00:49:02;;;;;;;19.60;10.43;;;;;;;2.97;81.38;99784.99;1730252;83;22037;-73
2021/03/16 00:51:29;;;;;;;16.25;9.20;;;;;;;2.99;81.38;99792.29;1730276;83;21145;-73
2021/03/16 00:53:55;;;;;;;12.82;7.50;;;;;;;2.99;81.41;99793.09;1730005;83;21583;-73
2021/03/16 00:56:22;;;;;;;15.65;10.15;;;;;;;2.98;81.41;99797.20;1730009;83;21173;-73
2021/03/16 00:58:48;;;;;;;14.45;9.53;;;;;;;2.97;81.43;99791.58;1730029;83;21145;-73
2021/03/16 01:01:14;;;;;;;16.93;10.55;;;;;;;2.98;81.45;99790.62;1730238;83;21426;-73
2021/03/16 01:03:41;;;;;;;20.45;11.25;;;;;;;3.00;81.48;99793.93;1729935;83;21505;-73
2021/03/16 01:06:07;;;;;;;20.70;12.80;;;;;;;3.01;81.50;99806.14;1730854;81;21223;-73
2021/03/16 01:08:33;;;;;;;18.35;12.30;;;;;;;3.01;81.54;99795.61;1730182;83;21136;-73
2021/03/16 01:10:59;;;;;;;22.07;15.72;;;;;;;3.00;81.57;99797.41;1729933;82;21168;-73
2021/03/16 01:13:26;;;;;;;33.95;24.12;;;;;;;3.01;81.61;99795.61;1730164;83;21668;-73
2021/03/16 01:15:53;;;;;;;39.00;25.92;;;;;;;3.01;81.62;99795.61;1729892;81;21148;-73
2021/03/16 01:18:19;;;;;;;22.37;15.23;;;;;;;3.00;81.65;99799.20;1731015;81;21537;-73
2021/03/16 01:20:45;;;;;;;23.42;14.03;;;;;;;2.98;81.62;99800.67;1787355;80;21127;-73
2021/03/16 01:23:12;;;;;;;19.98;14.30;;;;;;;2.99;81.65;99802.83;1775119;80;21117;-73
2021/03/16 01:25:38;;;;;;;22.82;12.82;;;;;;;2.98;81.68;99801.98;1756231;81;21182;-73
2021/03/16 01:28:05;;;;;;;16.93;11.08;;;;;;;2.99;81.68;99800.19;1757858;81;21236;-73
2021/03/16 01:30:32;;;;;;;19.17;12.03;;;;;;;3.00;81.69;99797.41;1765180;81;21071;-73
2021/03/16 01:32:58;;;;;;;18.10;12.28;;;;;;;3.00;81.72;99796.56;1765436;79;21180;-73
2021/03/16 01:35:24;;;;;;;21.40;13.60;;;;;;;3.01;81.76;99795.61;1765112;81;21091;-73
2021/03/16 01:37:54;;;;;;;23.57;16.25;;;;;;;3.05;81.80;99794.37;1764802;81;21392;-73
2021/03/16 01:40:24;;;;;;;22.23;15.87;;;;;;;3.07;81.83;99793.73;1765132;80;21134;-73
2021/03/16 01:42:51;;;;;;;26.65;20.20;;;;;;;3.08;81.89;99794.09;1764431;81;21164;-73
2021/03/16 01:45:17;;;;;;;32.00;23.20;;;;;;;3.09;81.94;99795.77;1764863;81;21166;-73
2021/03/16 01:47:48;;;;;;;28.45;21.97;;;;;;;3.09;81.96;99795.77;1765115;81;21488;-73
2021/03/16 01:50:19;;;;;;;26.00;17.67;;;;;;;3.08;81.99;99798.04;1764838;81;21152;-73
2021/03/16 01:52:46;;;;;;;26.05;18.65;;;;;;;3.07;82.01;99792.89;1764909;81;21132;-73
2021/03/16 01:55:13;;;;;;;30.70;19.82;;;;;;;3.06;82.01;99794.72;1764831;81;21110;-73
2021/03/16 01:57:41;;;;;;;25.92;18.30;;;;;;;3.04;82.04;99796.64;1764873;81;21744;-73
2021/03/16 02:00:10;;;;;;;31.90;18.17;;;;;;;3.03;82.06;99798.92;1764889;81;21134;-73
2021/03/16 02:02:36;;;;;;;24.98;15.70;;;;;;;3.03;82.06;99801.55;1764963;81;21216;-73
2021/03/16 02:05:07;;;;;;;26.70;16.12;;;;;;;3.03;82.10;99798.11;1764984;81;21127;-73
2021/03/16 02:07:41;;;;;;;28.05;20.20;;;;;;;3.05;82.09;99801.44;1764784;81;21164;-73
2021/03/16 02:10:24;;;;;;;27.62;20.27;;;;;;;3.04;82.11;99804.55;1764283;81;21653;-73
2021/03/16 02:13:04;;;;;;;32.60;23.25;;;;;;;3.06;82.17;99801.31;1695691;83;21639;-73
2021/03/16 02:15:36;;;;;;;30.32;19.15;;;;;;;3.05;82.19;99802.75;1740883;82;21182;-73
2021/03/16 02:18:10;;;;;;;28.77;16.97;;;;;;;3.04;82.23;99808.50;1740934;82;21255;-73
2021/03/16 02:21:00;;;;;;;31.02;18.10;;;;;;;3.04;82.27;99812.45;1740114;82;21142;-73
2021/03/16 02:24:05;;;;;;;35.45;19.75;;;;;;;3.03;82.33;99809.45;1758103;81;21181;-73
2021/03/16 02:26:59;;;;;;;38.48;22.87;;;;;;;3.03;82.36;99804.19;1771624;81;21157;-73
2021/03/16 02:29:42;;;;;;;40.88;22.35;;;;;;;3.01;82.40;99809.61;1758664;81;22091;-73
2021/03/16 02:32:11;;;;;;;39.75;22.22;;;;;;;3.00;82.42;99810.57;1759045;81;21143;-73
2021/03/16 02:34:39;;;;;;;34.00;20.72;;;;;;;3.00;82.44;99817.64;1745520;82;21597;-73
2021/03/16 02:37:07;;;;;;;41.02;23.38;;;;;;;3.00;82.45;99816.31;1759117;81;21123;-73
2021/03/16 02:39:33;;;;;;;37.42;20.65;;;;;;;3.01;82.48;99816.67;1745360;82;21098;-73
2021/03/16 02:42:01;;;;;;;34.70;24.45;;;;;;;3.01;82.50;99820.63;1759153;81;21127;-73
2021/03/16 02:44:28;;;;;;;42.43;25.92;;;;;;;3.02;82.53;99823.62;1745349;82;21149;-73
2021/03/16 02:46:54;;;;;;;29.63;18.98;;;;;;;3.02;82.53;99820.98;1759141;81;21102;-73
2021/03/16 02:49:20;;;;;;;30.77;17.92;;;;;;;3.03;82.58;99826.58;1745028;82;21113;-73
2021/03/16 02:51:46;;;;;;;27.62;15.32;;;;;;;3.04;82.62;99826.94;1759185;81;21620;-73
2021/03/16 02:54:13;;;;;;;43.42;25.80;;;;;;;3.03;82.66;99827.41;1745311;82;21196;-73
2021/03/16 02:56:39;;;;;;;29.07;17.73;;;;;;;3.03;82.69;99834.48;1759255;81;21170;-73
2021/03/16 02:59:08;;;;;;;28.60;16.07;;;;;;;3.02;82.71;99831.52;1745137;82;21156;-73
2021/03/16 03:01:35;;;;;;;29.18;16.73;;;;;;;2.99;82.74;99835.23;1759158;81;21151;-73
2021/03/16 03:04:02;;;;;;;23.12;14.90;;;;;;;2.98;82.76;99839.34;1729103;82;21151;-73
2021/03/16 03:06:28;;;;;;;29.45;17.50;;;;;;;2.96;82.78;99842.57;1759740;81;21142;-73
2021/03/16 03:08:54;;;;;;;34.05;20.27;;;;;;;2.95;82.80;99847.03;1732744;82;21147;-73
2021/03/16 03:11:21;;;;;;;40.23;25.35;;;;;;;2.93;82.82;99846.80;1732786;82;21171;-73
2021/03/16 03:13:47;;;;;;;39.75;31.02;;;;;;;2.93;82.84;99849.43;1732938;82;21186;-73
2021/03/16 03:16:13;;;;;;;28.83;19.57;;;;;;;2.94;82.84;99852.42;1732821;82;21108;-73
2021/03/16 03:18:39;;;;;;;30.45;18.77;;;;;;;2.94;82.87;99850.63;1732820;82;21144;-73
2021/03/16 03:21:16;;;;;;;27.45;16.30;;;;;;;2.96;82.90;99853.95;1732717;82;21172;-74
2021/03/16 03:23:56;;;;;;;30.30;17.07;;;;;;;2.97;82.92;99852.14;1732136;82;21533;-73
2021/03/16 03:26:32;;;;;;;44.03;19.77;;;;;;;2.97;82.93;99856.09;1731337;82;21112;-73
2021/03/16 03:28:58;;;;;;;25.40;15.50;;;;;;;2.99;82.99;99856.81;1706599;82;21188;-73
2021/03/16 03:31:24;;;;;;;21.65;14.38;;;;;;;3.00;83.00;99862.41;1732602;82;21172;-73
2021/03/16 03:33:50;;;;;;;16.45;11.15;;;;;;;3.02;83.01;99864.44;1732306;81;21120;-73
2021/03/16 03:36:16;;;;;;;19.17;13.48;;;;;;;3.01;83.05;99860.13;1732371;82;21994;-74
2021/03/16 03:38:43;;;;;;;24.60;17.27;;;;;;;3.03;83.09;99867.41;1732293;82;21140;-73
2021/03/16 03:41:09;;;;;;;18.90;12.20;;;;;;;3.03;83.13;99866.59;1692194;82;21159;-73
2021/03/16 03:43:36;;;;;;;35.63;27.87;;;;;;;3.02;83.14;99871.03;1732354;82;22271;-73
2021/03/16 03:46:02;;;;;;;20.77;14.95;;;;;;;3.01;83.14;99874.62;1732299;82;21144;-73
2021/03/16 03:48:28;;;;;;;15.08;11.03;;;;;;;3.02;83.18;99876.30;1732560;82;21216;-73
2021/03/16 03:50:56;;;;;;;16.85;10.90;;;;;;;3.01;83.16;99878.57;1732381;82;21111;-73
2021/03/16 03:53:24;;;;;;;17.73;11.70;;;;;;;3.01;83.19;99877.25;1732519;82;21148;-72
2021/03/16 03:55:51;;;;;;;14.05;9.73;;;;;;;3.01;83.20;99885.99;1732465;82;21574;-73
2021/03/16 03:58:17;;;;;;;14.95;9.38;;;;;;;3.01;83.21;99891.73;1732510;82;21165;-73
2021/03/16 04:00:43;;;;;;;21.10;13.62;;;;;;;3.00;83.20;99894.02;1732497;82;21156;-73
2021/03/16 04:03:10;;;;;;;73.67;29.87;;;;;;;3.01;83.23;99890.42;1732501;82;21203;-73
2021/03/16 04:05:36;;;;;;;56.98;27.37;;;;;;;3.01;83.27;99899.16;1732663;82;21151;-73
2021/03/16 04:08:03;;;;;;;38.15;25.57;;;;;;;3.03;83.26;99896.38;1732237;82;21343;-73
2021/03/16 04:10:30;;;;;;;35.45;23.80;;;;;;;3.03;83.31;99901.16;1732664;82;21227;-73
2021/03/16 04:12:56;;;;;;;28.35;16.37;;;;;;;3.03;83.33;99904.27;1732259;82;21155;-73
2021/03/16 04:15:22;;;;;;;35.68;27.60;;;;;;;3.02;83.36;99903.95;1759186;81;21167;-73
2021/03/16 04:17:48;;;;;;;49.10;32.83;;;;;;;3.01;83.36;99907.06;1727546;83;21114;-73
2021/03/16 04:20:15;;;;;;;32.38;21.27;;;;;;;3.01;83.39;99910.17;1759309;81;21320;-73
2021/03/16 04:22:42;;;;;;;28.83;17.35;;;;;;;3.00;83.39;99915.08;1757012;81;21153;-73
2021/03/16 04:25:10;;;;;;;34.38;15.48;;;;;;;2.98;83.40;99911.77;1727373;83;21182;-73
2021/03/16 04:27:37;;;;;;;16.00;10.05;;;;;;;2.98;83.40;99909.97;1739070;81;21640;-73
2021/03/16 04:30:06;;;;;;;22.10;11.68;;;;;;;2.98;83.41;99909.97;1742511;82;21156;-73
2021/03/16 04:32:32;;;;;;;19.12;11.55;;;;;;;2.97;83.44;99913.56;1737816;82;21241;-72
2021/03/16 04:34:58;;;;;;;36.17;15.15;;;;;;;2.99;83.44;99918.20;1737646;82;21644;-73
2021/03/16 04:37:24;;;;;;;24.67;12.85;;;;;;;3.02;83.48;99918.44;1737594;82;21139;-73
2021/03/16 04:39:50;;;;;;;22.17;12.00;;;;;;;3.04;83.49;99913.85;1762821;81;21127;-73
2021/03/16 04:42:17;;;;;;;16.97;10.15;;;;;;;3.04;83.51;99921.75;1768099;81;21176;-73
2021/03/16 04:44:43;;;;;;;24.05;13.00;;;;;;;3.03;83.54;99918.76;1780474;80;21580;-73
2021/03/16 04:47:09;;;;;;;18.05;12.28;;;;;;;3.03;83.57;99921.39;1752779;81;21153;-73
2021/03/16 04:49:36;;;;;;;21.37;10.93;;;;;;;3.01;83.58;99918.08;1770790;80;21155;-73
2021/03/16 04:52:02;;;;;;;16.50;9.70;;;;;;;3.00;83.58;99926.45;1755552;81;21109;-74
2021/03/16 04:54:28;;;;;;;13.03;7.83;;;;;;;2.96;83.60;99924.21;1756405;81;21193;-73
2021/03/16 04:56:54;;;;;;;13.08;7.33;;;;;;;2.92;83.61;99925.47;1753211;80;21157;-74
2021/03/16 04:59:21;;;;;;;14.78;7.75;;;;;;;2.88;83.62;99929.33;1750490;82;21124;-73
2021/03/16 05:01:47;;;;;;;13.08;6.95;;;;;;;2.86;83.61;99935.20;1750395;82;21625;-73
2021/03/16 05:04:13;;;;;;;14.68;6.92;;;;;;;2.85;83.63;99933.55;1750329;82;21459;-73
2021/03/16 05:06:39;;;;;;;12.80;6.80;;;;;;;2.83;83.66;99939.41;1750487;82;21184;-73
2021/03/16 05:09:06;;;;;;;18.35;8.15;;;;;;;2.82;83.66;99937.73;1750277;82;21356;-73
2021/03/16 05:11:33;;;;;;;17.10;10.95;;;;;;;2.84;83.70;99941.09;1755134;81;21148;-73
2021/03/16 05:13:59;;;;;;;27.07;11.15;;;;;;;2.84;83.70;99942.41;1787399;80;21554;-73
2021/03/16 05:16:25;;;;;;;45.70;16.42;;;;;;;2.85;83.69;99948.84;1787447;80;21580;-73
2021/03/16 05:18:52;;;;;;;49.20;16.52;;;;;;;2.86;83.70;99948.36;1787627;80;21112;-73
2021/03/16 05:21:18;;;;;;;42.70;16.25;;;;;;;2.84;83.72;99952.46;1787311;80;21156;-73
2021/03/16 05:23:44;;;;;;;26.07;13.00;;;;;;;2.86;83.73;99954.94;1787419;80;21080;-73
2021/03/16 05:26:10;;;;;;;19.57;13.55;;;;;;;2.85;83.73;99961.20;1787287;80;21112;-73
2021/03/16 05:28:37;;;;;;;15.90;10.53;;;;;;;2.82;83.76;99964.06;1787103;80;21238;-73
2021/03/16 05:31:03;;;;;;;22.82;17.65;;;;;;;2.79;83.75;99964.33;1765501;80;21117;-73
2021/03/16 05:33:29;;;;;;;20.12;13.30;;;;;;;2.76;83.74;99970.70;1754400;81;21327;-73
2021/03/16 05:35:55;;;;;;;14.70;9.03;;;;;;;2.75;83.75;99968.19;1740519;82;21199;-73
2021/03/16 05:38:22;;;;;;;18.05;8.38;;;;;;;2.77;83.76;99970.23;1740322;82;21116;-73
2021/03/16 05:40:49;;;;;;;18.23;9.45;;;;;;;2.78;83.76;99971.91;1737770;82;22077;-73
2021/03/16 05:43:15;;;;;;;23.73;10.80;;;;;;;2.79;83.79;99973.07;1737650;82;21110;-74
2021/03/16 05:45:41;;;;;;;63.70;42.30;;;;;;;2.82;83.78;99975.91;1737698;82;21217;-73
2021/03/16 05:48:09;;;;;;;40.10;25.90;;;;;;;2.85;83.80;99985.70;1737512;82;21191;-73
2021/03/16 05:50:35;;;;;;;27.77;20.80;;;;;;;2.87;83.79;99984.27;1738043;81;21174;-73
2021/03/16 05:53:03;;;;;;;27.93;16.97;;;;;;;2.88;83.81;99993.37;1737823;82;21462;-73
2021/03/16 05:55:30;;;;;;;22.27;14.63;;;;;;;2.90;83.85;99996.69;1738044;81;21210;-73
2021/03/16 05:57:56;;;;;;;24.30;13.60;;;;;;;2.89;83.87;99997.65;1738112;82;22054;-73
2021/03/16 06:00:22;;;;;;;16.85;9.63;;;;;;;2.90;83.89;100003.75;1737893;82;21139;-73
2021/03/16 06:02:49;;;;;;;37.95;23.30;;;;;;;2.90;83.90;99999.33;1738024;82;21140;-73
2021/03/16 06:05:16;;;;;;;60.28;36.00;;;;;;;2.93;83.91;100007.44;1740065;81;21560;-73
2021/03/16 06:07:49;;;;;;;87.57;52.20;;;;;;;2.92;83.92;100001.84;1738030;82;21131;-73
2021/03/16 06:10:21;;;;;;;21.85;13.53;;;;;;;2.93;83.92;100007.44;1737826;82;21601;-73
2021/03/16 06:12:47;;;;;;;48.87;32.38;;;;;;;2.95;83.90;100013.42;1738020;82;21132;-74
2021/03/16 06:15:18;;;;;;;57.30;32.63;;;;;;;2.96;83.90;100015.07;1737960;81;21128;-74
2021/03/16 06:17:46;;;;;;;55.28;30.52;;;;;;;2.97;83.91;100023.33;1738062;81;21140;-73
2021/03/16 06:20:30;;;;;;;21.40;12.55;;;;;;;2.98;83.92;100022.38;1738023;82;21171;-74
2021/03/16 06:23:13;;;;;;;22.48;13.08;;;;;;;3.01;83.94;100032.65;1737168;82;21215;-74
2021/03/16 06:25:43;;;;;;;22.37;13.60;;;;;;;3.00;83.97;100030.97;1737832;81;21174;-73
2021/03/16 06:28:10;;;;;;;;;;;;;;;3.03;83.97;100028.58;1722288;82;21707;-74
2021/03/16 06:30:37;;;;;;;28.23;17.65;;;;;;;3.06;84.00;100037.05;1735016;82;20750;-74
2021/03/16 06:33:04;;;;;;;43.17;23.92;;;;;;;3.07;84.01;100038.70;1732723;82;21140;-74
2021/03/16 06:35:30;;;;;;;46.37;21.93;;;;;;;3.09;84.02;100041.22;1732621;82;22063;-73
2021/03/16 06:38:10;;;;;;;35.75;20.52;;;;;;;3.09;84.05;100042.05;1732619;82;21155;-74
2021/03/16 06:40:36;;;;;;;55.17;27.98;;;;;;;3.06;84.04;100044.95;1726744;81;21183;-74
2021/03/16 06:43:10;;;;;;;58.92;30.40;;;;;;;3.05;84.06;100042.44;1763128;81;21155;-74
2021/03/16 06:45:39;;;;;;;57.67;30.10;;;;;;;3.07;84.09;100049.23;1743824;81;21201;-74
2021/03/16 06:48:16;;;;;;;51.60;28.57;;;;;;;3.09;84.07;100056.55;1762922;81;21227;-73
2021/03/16 06:50:43;;;;;;;39.33;22.37;;;;;;;3.11;84.08;100057.23;1748475;81;21120;-73
2021/03/16 06:53:13;;;;;;;36.20;21.52;;;;;;;3.12;84.10;100066.81;1732630;82;21155;-73
2021/03/16 06:55:54;;;;;;;54.50;29.80;;;;;;;3.14;84.10;100070.14;1702762;82;21175;-73
2021/03/16 06:58:24;;;;;;;41.10;22.70;;;;;;;3.14;84.10;100068.82;1732663;82;21498;-73
2021/03/16 07:01:12;;;;;;;57.85;30.30;;;;;;;3.17;84.12;100072.51;1732052;82;21183;-74
2021/03/16 07:03:40;;;;;;;39.40;22.62;;;;;;;3.16;84.12;100077.45;1729262;81;21142;-74
2021/03/16 07:06:13;;;;;;;;;;;;;;;3.16;84.14;100085.83;1735005;82;21147;-74
2021/03/16 07:08:42;;;;;;;37.75;21.40;;;;;;;3.16;84.15;100087.98;1750076;81;20259;-74
2021/03/16 07:11:14;;;;;;;42.78;24.30;;;;;;;3.17;84.16;100093.58;1734756;81;21156;-73
2021/03/16 07:13:42;;;;;;;39.55;19.12;;;;;;;3.20;84.18;100093.31;1732483;82;22095;-74
2021/03/16 07:16:10;;;;;;;34.18;19.02;;;;;;;3.23;84.19;100094.41;1747145;81;21167;-74
2021/03/16 07:18:45;;;;;;;27.50;16.57;;;;;;;3.25;84.19;100101.68;1737414;81;21165;-74
2021/03/16 07:21:27;;;;;;;35.55;19.35;;;;;;;3.26;84.20;100103.36;1740106;81;21593;-74
2021/03/16 07:24:04;;;;;;;45.40;24.27;;;;;;;3.26;84.21;100111.27;1749306;81;21171;-74
2021/03/16 07:26:31;;;;;;;36.15;20.00;;;;;;;3.31;84.22;100107.73;1760820;81;21206;-73
2021/03/16 07:28:57;;;;;;;38.20;19.45;;;;;;;3.33;84.25;100119.00;1741279;81;21218;-73
2021/03/16 07:31:24;;;;;;;50.00;26.60;;;;;;;3.36;84.25;100119.21;1738920;81;21577;-74
2021/03/16 07:33:51;;;;;;;32.25;18.27;;;;;;;3.37;84.28;100123.05;1748182;81;21107;-73
2021/03/16 07:36:18;;;;;;;31.87;18.60;;;;;;;3.36;84.30;100125.80;1762768;81;21585;-73
2021/03/16 07:38:45;;;;;;;34.23;18.92;;;;;;;3.36;84.32;100129.75;1763135;81;21205;-73
2021/03/16 07:41:12;;;;;;;31.20;18.23;;;;;;;3.34;84.32;100132.51;1762962;81;21154;-73
2021/03/16 07:43:40;;;;;;;28.60;18.07;;;;;;;3.36;84.34;100138.50;1762911;81;21148;-73
2021/03/16 07:46:19;;;;;;;36.77;19.92;;;;;;;3.39;84.35;100140.03;1746436;81;21161;-73
2021/03/16 07:48:47;;;;;;;44.67;23.25;;;;;;;3.40;84.37;100143.87;1751009;82;21189;-73
2021/03/16 07:51:20;;;;;;;42.17;23.60;;;;;;;3.44;84.38;100140.48;1751425;81;22167;-73
2021/03/16 07:53:57;;;;;;;32.10;18.92;;;;;;;3.46;84.38;100149.92;1751351;81;21161;-74
2021/03/16 07:56:31;;;;;;;30.92;18.12;;;;;;;3.47;84.41;100154.24;1751245;81;21117;-73
2021/03/16 07:58:57;;;;;;;31.10;19.52;;;;;;;3.45;84.39;100160.11;1742432;82;21634;-73
2021/03/16 08:01:24;;;;;;;35.55;20.17;;;;;;;3.46;84.42;100169.70;1715203;82;21133;-74
2021/03/16 08:03:53;;;;;;;51.33;29.23;;;;;;;3.45;84.40;100169.33;1742340;82;21275;-73
2021/03/16 08:06:24;;;;;;;45.43;29.10;;;;;;;3.44;84.40;100171.64;1713006;82;21136;-73
2021/03/16 08:08:50;;;;;;;57.08;33.50;;;;;;;3.44;84.41;100176.91;1729479;83;21558;-73
2021/03/16 08:11:17;;;;;;;38.67;24.35;;;;;;;3.44;84.41;100180.87;1729551;83;21204;-73
2021/03/16 08:13:57;;;;;;;47.27;26.37;;;;;;;3.46;84.43;100178.92;1730105;81;21156;-73
2021/03/16 08:16:35;;;;;;;;;;;;;;;3.44;84.44;100175.59;1736675;81;22070;-73
2021/03/16 08:19:22;;;;;;;28.38;17.70;;;;;;;3.42;84.41;100185.41;1733044;82;20521;-73
2021/03/16 08:21:58;;;;;;;39.58;22.05;;;;;;;3.40;84.42;100184.72;1747203;80;21220;-73
2021/03/16 08:24:36;;;;;;;32.90;19.95;;;;;;;3.44;84.45;100196.68;1751227;81;21130;-73
2021/03/16 08:27:03;;;;;;;37.88;22.80;;;;;;;3.47;84.44;100193.78;1752162;80;21129;-74
2021/03/16 08:29:29;;;;;;;40.12;22.77;;;;;;;3.52;84.44;100199.48;1751490;81;21226;-74
2021/03/16 08:31:57;;;;;;;42.83;23.35;;;;;;;3.57;84.45;100200.42;1753688;81;21189;-73
2021/03/16 08:34:27;;;;;;;40.12;22.20;;;;;;;3.60;84.43;100198.84;1755410;80;21968;-73
2021/03/16 08:36:53;;;;;;;44.73;24.72;;;;;;;3.64;84.43;100204.68;1734194;82;21727;-73
2021/03/16 08:39:21;;;;;;;32.50;18.40;;;;;;;3.64;84.44;100207.31;1751337;81;21152;-73
2021/03/16 08:42:02;;;;;;;37.08;19.70;;;;;;;3.66;84.44;100212.00;1733975;81;21193;-73
2021/03/16 08:44:30;;;;;;;47.58;25.20;;;;;;;3.68;84.44;100211.38;1731188;82;21149;-73
2021/03/16 08:46:56;;;;;;;49.90;24.90;;;;;;;3.64;84.44;100213.44;1761401;81;21214;-73
2021/03/16 08:49:24;;;;;;;58.25;28.38;;;;;;;3.66;84.45;100214.13;1758543;81;21175;-72
2021/03/16 08:51:50;;;;;;;52.93;27.55;;;;;;;3.66;84.46;100219.91;1754747;81;21161;-72
2021/03/16 08:54:27;;;;;;;87.53;39.53;;;;;;;3.69;84.45;100220.96;1769791;80;21208;-72
2021/03/16 08:56:54;;;;;;;68.22;31.48;;;;;;;3.72;84.45;100224.66;1776816;80;21169;-72
2021/03/16 08:59:21;;;;;;;56.65;27.62;;;;;;;3.75;84.44;100229.66;1755694;80;21170;-72
2021/03/16 09:01:49;;;;;;;146.28;58.60;;;;;;;3.74;84.45;100233.25;1748724;81;21179;-72
2021/03/16 09:04:16;;;;;;;103.60;44.73;;;;;;;3.74;84.45;100233.25;1785060;80;21162;-71
2021/03/16 09:06:42;;;;;;;77.20;34.78;;;;;;;3.79;84.45;100237.67;1785091;80;21287;-71
2021/03/16 09:09:09;;;;;;;107.40;47.05;;;;;;;3.80;84.44;100244.11;1785118;80;21568;-71
2021/03/16 09:11:41;;;;;;;84.83;36.77;;;;;;;3.81;84.43;100248.91;1785174;80;21176;-72
2021/03/16 09:14:17;;;;;;;100.92;44.50;;;;;;;3.83;84.43;100247.00;1772863;80;21202;-72
2021/03/16 09:16:48;;;;;;;93.82;42.35;;;;;;;3.80;84.43;100253.34;1761655;81;21612;-72
2021/03/16 09:19:16;;;;;;;47.95;26.42;;;;;;;3.85;84.42;100259.55;1761199;81;22446;-72
2021/03/16 09:22:01;;;;;;;79.25;39.53;;;;;;;3.83;84.43;100258.39;1761364;80;21758;-72
2021/03/16 09:24:31;;;;;;;58.25;31.35;;;;;;;3.80;84.43;100255.17;1761558;81;21159;-73
2021/03/16 09:27:02;;;;;;;43.28;22.25;;;;;;;3.79;84.43;100261.41;1761422;81;21142;-73
2021/03/16 09:29:37;;;;;;;46.83;24.82;;;;;;;3.79;84.42;100264.05;1761611;81;21128;-71
2021/03/16 09:32:10;;;;;;;32.93;20.23;;;;;;;3.78;84.42;100261.05;1707078;81;22081;-71
2021/03/16 09:34:37;;;;;;;40.92;22.67;;;;;;;3.83;84.43;100265.45;1733050;81;21694;-71
2021/03/16 09:37:12;;;;;;;35.10;20.08;;;;;;;3.85;84.42;100266.15;1733339;82;21135;-71
2021/03/16 09:39:38;;;;;;;36.50;19.25;;;;;;;3.91;84.42;100270.89;1747436;81;21275;-71
2021/03/16 09:42:06;;;;;;;47.85;22.20;;;;;;;3.95;84.41;100273.63;1739205;81;21198;-71
2021/03/16 09:44:45;;;;;;;46.28;22.93;;;;;;;3.89;84.38;100275.00;1725130;81;22059;-71
2021/03/16 09:47:11;;;;;;;44.45;20.20;;;;;;;3.88;84.41;100276.44;1723191;83;21602;-71
2021/03/16 09:49:39;;;;;;;54.67;24.67;;;;;;;3.89;84.40;100274.16;1723077;83;21157;-72
2021/03/16 09:52:10;;;;;;;34.53;17.42;;;;;;;3.86;84.41;100280.55;1723077;82;21182;-72
2021/03/16 09:54:42;;;;;;;32.33;15.90;;;;;;;3.87;84.42;100276.91;1723815;81;21189;-73
2021/03/16 09:57:11;;;;;;;36.98;18.20;;;;;;;3.89;84.42;100280.75;1726600;81;21175;-72
2021/03/16 09:59:41;;;;;;;40.77;19.47;;;;;;;3.97;84.42;100287.06;1719447;83;21184;-73
2021/03/16 10:02:07;;;;;;;34.88;16.05;;;;;;;4.10;84.40;100293.91;1741559;81;21624;-73
2021/03/16 10:04:49;;;;;;;30.40;14.87;;;;;;;4.15;84.39;100288.58;1753753;81;21746;-73
2021/03/16 10:07:27;;;;;;;14.83;8.55;;;;;;;4.19;84.41;100295.27;1742646;81;21219;-73
2021/03/16 10:09:53;;;;;;;17.67;9.53;;;;;;;4.21;84.38;100301.27;1739973;81;21589;-73
2021/03/16 10:12:22;;;;;;;16.85;8.48;;;;;;;4.16;84.38;100299.50;1723226;83;21667;-73
2021/03/16 10:14:50;;;;;;;18.17;10.88;;;;;;;4.07;84.37;100305.58;1745344;81;21152;-72
2021/03/16 10:17:26;;;;;;;14.18;8.73;;;;;;;4.01;84.37;100315.34;1751935;81;21615;-72
2021/03/16 10:19:55;;;;;;;22.22;11.70;;;;;;;3.95;84.35;100321.11;1753050;81;21602;-72
2021/03/16 10:22:31;;;;;;;15.55;7.97;;;;;;;3.90;84.35;100320.69;1753095;81;21598;-72
2021/03/16 10:24:59;;;;;;;10.68;6.40;;;;;;;3.88;84.32;100323.91;1753190;81;21167;-72
2021/03/16 10:27:27;;;;;;;11.70;6.15;;;;;;;3.88;84.31;100330.03;1741853;81;21580;-72
2021/03/16 10:29:55;;;;;;;15.23;7.97;;;;;;;3.94;84.32;100323.42;1723205;83;21188;-71
2021/03/16 10:32:21;;;;;;;18.67;8.70;;;;;;;3.98;84.28;100328.77;1731961;81;21167;-72
2021/03/16 10:34:47;;;;;;;18.25;8.08;;;;;;;4.05;84.24;100336.52;1763785;81;21324;-72
2021/03/16 10:37:22;;;;;;;10.58;5.83;;;;;;;4.11;84.22;100334.70;1763580;81;21198;-72
2021/03/16 10:39:48;;;;;;;9.63;4.90;;;;;;;4.16;84.19;100335.13;1734916;81;21683;-72
2021/03/16 10:42:15;;;;;;;13.38;6.80;;;;;;;4.19;84.14;100341.46;1762957;81;21179;-72
2021/03/16 10:44:41;;;;;;;22.45;11.25;;;;;;;4.30;84.11;100341.38;1762949;81;21167;-72
2021/03/16 10:47:07;;;;;;;16.45;9.48;;;;;;;4.38;84.08;100348.17;1763126;81;21148;-72
2021/03/16 10:49:35;;;;;;;21.42;10.40;;;;;;;4.46;84.06;100344.40;1762661;81;21170;-72
2021/03/16 10:52:02;;;;;;;24.23;10.05;;;;;;;4.42;84.00;100348.74;1762901;81;21168;-72
2021/03/16 10:54:28;;;;;;;15.25;10.40;;;;;;;4.42;83.96;100344.30;1762979;81;21163;-72
2021/03/16 10:56:54;;;;;;;21.97;14.40;;;;;;;4.44;83.95;100350.28;1753644;81;21149;-72
2021/03/16 10:59:22;;;;;;;14.05;8.60;;;;;;;4.39;83.90;100355.13;1742680;81;21565;-72
2021/03/16 11:01:49;;;;;;;25.27;11.80;;;;;;;4.39;83.85;100348.53;1759209;81;21183;-72
2021/03/16 11:04:17;;;;;;;8.40;4.65;;;;;;;4.45;83.80;100357.72;1738643;81;21183;-72
2021/03/16 11:06:47;;;;;;;14.28;6.42;;;;;;;4.52;83.75;100354.42;1733274;82;21630;-72
2021/03/16 11:09:13;;;;;;;13.72;6.75;;;;;;;4.59;83.72;100360.48;1735704;81;21143;-73
2021/03/16 11:11:40;;;;;;;10.45;5.53;;;;;;;4.64;83.65;100360.94;1733231;82;21199;-72
2021/03/16 11:14:07;;;;;;;14.23;6.37;;;;;;;4.74;83.61;100367.09;1736912;81;21635;-73
2021/03/16 11:16:33;;;;;;;16.02;8.23;;;;;;;4.82;83.57;100369.39;1763688;81;21211;-72
2021/03/16 11:19:00;;;;;;;26.33;10.20;;;;;;;4.80;83.52;100373.15;1758823;81;38578;-72
2021/03/16 11:21:26;;;;;;;18.48;7.10;;;;;;;4.74;83.46;100365.77;1763797;81;21159;-72
2021/03/16 11:23:53;;;;;;;21.68;9.88;;;;;;;4.69;83.41;100370.59;1760234;81;21211;-72
2021/03/16 11:26:19;;;;;;;31.70;14.15;;;;;;;4.68;83.37;100366.31;1733687;81;21521;-72
2021/03/16 11:28:45;;;;;;;30.48;13.60;;;;;;;4.73;83.34;100372.02;1744947;82;21242;-72
2021/03/16 11:31:11;;;;;;;100.33;31.27;;;;;;;4.77;83.30;100374.73;1744989;81;21128;-72